Flight Track Log - Related Links

Times and Time Zones

All times are in EDT time to prevent confusion due to time zone crossing. See the NGF4JR flight status page for this flight to view local times or setup timezone preferences in your user account.

Time Position Orientation Groundspeed Altitude Reporting Facility
EDT Latitude Longitude Course Direction KTS MPH feet Rate Location/Type
Sun 09:49:15 AM 39.2306 -80.2333 179° South 101 116 4,000  Level Cleveland Center
Sun 09:50:17 AM 39.2028 -80.2369 186° South 101 116 5,000 878 Climbing Cleveland Center
Sun 09:51:18 AM 39.1758 -80.2369 180° South 99 114 5,800 829 Climbing Cleveland Center
Sun 09:52:00 AM 39.0856 -80.2271 180° South  Level Estimated
Sun 09:52:20 AM 39.1425 -80.2353 178° South 99 114 6,700  Level Cleveland Center
Sun 09:53:00 AM 39.0432 -80.2261 179° South  Level FlightAware Approximate
Sun 09:53:22 AM 39.1147 -80.2378 184° South 100 115 7,400  Level Cleveland Center
Sun 09:54:00 AM 39.0007 -80.2251 179° South  Level FlightAware Approximate
Sun 09:54:24 AM 39.0844 -80.2364 178° South 103 119 7,900  Level Cleveland Center
Sun 09:55:25 AM 39.0511 -80.2344 177° South 112 129 8,100 98 Climbing Cleveland Center
Sun 09:56:27 AM 39.0072 -80.2400 186° South 140 161 8,100  Level Cleveland Center
Sun 09:57:29 AM 38.9625 -80.2389 179° South 155 178 8,100  Level Cleveland Center
Sun 09:58:31 AM 38.9178 -80.2350 176° South 159 183 8,100  Level Cleveland Center
Sun 09:59:32 AM 38.8644 -80.2358 181° South 160 184 8,100  Level Cleveland Center
Sun 10:00:34 AM 38.8197 -80.2356 180° South 160 184 8,100  Level Cleveland Center
Sun 10:01:36 AM 38.7747 -80.2353 180° South 162 186 8,100  Level Cleveland Center
Sun 10:02:38 AM 38.7292 -80.2361 181° South 162 186 8,100  Level Cleveland Center
Sun 10:03:39 AM 38.6850 -80.2397 184° South 161 185 8,100  Level Cleveland Center
Sun 10:04:41 AM 38.6403 -80.2408 181° South 160 184 8,100 -48 Level Cleveland Center
Sun 10:05:43 AM 38.5856 -80.2350 175° South 162 186 8,000 -97 Descending Cleveland Center
Sun 10:06:45 AM 38.5408 -80.2328 178° South 163 188 7,900  Descending Cleveland Center
Sun 10:07:59 AM 38.4833 -80.2467 191° South 160 184 8,000 44 Climbing Washington Center
Sun 10:09:00 AM 38.4375 -80.2464 180° South 160 184 8,000  Level Washington Center
Sun 10:10:00 AM 38.3936 -80.2464 180° South 160 184 8,000  Level Washington Center
Sun 10:10:58 AM 38.3542 -80.2439 177° South 160 184 8,000  Level Washington Center
Sun 10:11:59 AM 38.3083 -80.2411 177° South 160 184 8,000  Level Washington Center
Sun 10:12:59 AM 38.2644 -80.2461 185° South 160 184 8,000  Level Washington Center
Sun 10:14:00 AM 38.2167 -80.2433 177° South 160 184 8,000  Level Washington Center
Sun 10:14:58 AM 38.1664 -80.2453 182° South 160 184 8,000  Level Washington Center
Sun 10:15:58 AM 38.1225 -80.2453 180° South 160 184 8,000  Level Washington Center
Sun 10:16:59 AM 38.0769 -80.2425 177° South 160 184 8,000  Level Washington Center
Sun 10:17:59 AM 38.0331 -80.2397 177° South 160 184 8,000  Level Washington Center
Sun 10:18:59 AM 37.9914 -80.2397 180° South 160 184 8,000  Level Washington Center
Sun 10:20:00 AM 37.9456 -80.2397 180° South 160 184 8,000  Level Washington Center
Sun 10:21:00 AM 37.9000 -80.2342 175° South 160 184 8,000  Level Washington Center
Sun 10:21:58 AM 37.8497 -80.2336 180° South 160 184 8,000  Level Washington Center
Sun 10:22:59 AM 37.8036 -80.2414 188° South 165 190 8,000  Level Washington Center
Sun 10:23:59 AM 37.7578 -80.2411 180° South 165 190 8,000  Level Washington Center
Sun 10:24:59 AM 37.7139 -80.2411 180° South 165 190 8,000  Level Washington Center
Sun 10:26:00 AM 37.6703 -80.2383 177° South 160 184 8,000  Level Washington Center
Sun 10:27:00 AM 37.6264 -80.2383 180° South 160 184 8,000  Level Washington Center
Sun 10:27:58 AM 37.5806 -80.2356 177° South 160 184 8,000  Level Washington Center
Sun 10:28:59 AM 37.5283 -80.2375 182° South 160 184 8,000  Level Washington Center
Sun 10:30:00 AM 37.4825 -80.2400 182° South 160 184 8,000  Level Washington Center
Sun 10:31:00 AM 37.4367 -80.2372 177° South 160 184 8,000  Level Washington Center
Sun 10:31:58 AM 37.3908 -80.2369 180° South 160 184 8,000  Level Washington Center
Sun 10:32:59 AM 37.3511 -80.2372 180° South 160 184 8,000  Level Washington Center
Sun 10:34:00 AM 37.3053 -80.2369 180° South 160 184 8,000  Level Washington Center
Sun 10:34:58 AM 37.2594 -80.2369 180° South 160 184 8,000  Level Washington Center
Sun 10:35:59 AM 37.2092 -80.2364 179° South 160 184 8,000  Level Washington Center
Sun 10:36:59 AM 37.1656 -80.2336 177° South 160 184 8,000  Level Washington Center
Sun 10:38:00 AM 37.1197 -80.2361 182° South 160 184 8,000  Level Washington Center
Sun 10:38:59 AM 37.0736 -80.2361 180° South 160 184 8,000  Level Washington Center
Sun 10:40:00 AM 37.0305 -80.2339 178° South  Level FlightAware Approximate
Sun 10:47:00 AM 36.7338 -80.2184 178° South  Level FlightAware Approximate
Sun 10:48:00 AM 36.6911 -80.2167 180° South  Level FlightAware Approximate
Sun 10:49:00 AM 36.6486 -80.2167 180° South  Level FlightAware Approximate
Sun 10:50:00 AM 36.6062 -80.2167 180° South  Level FlightAware Approximate
Sun 10:51:00 AM 36.5638 -80.2167 180° South  Level FlightAware Approximate
Sun 10:52:00 AM 36.5214 -80.2167 180° South  Level FlightAware Approximate
Sun 10:53:00 AM 36.4790 -80.2167 180° South  Level FlightAware Approximate
Sun 10:54:00 AM 36.4366 -80.2167 180° South  Level FlightAware Approximate
Sun 10:55:00 AM 36.3941 -80.2167 180° South  Level FlightAware Approximate
Sun 10:56:00 AM 36.3517 -80.2167 180° South  Level FlightAware Approximate
Sun 10:57:00 AM 36.3093 -80.2167 180° South  Level FlightAware Approximate
Sun 10:58:00 AM 36.2669 -80.2167 180° South  Level FlightAware Approximate
Sun 10:59:00 AM 36.2244 -80.2167 180° South  Level FlightAware Approximate
Sun 11:00:00 AM 36.1820 -80.2167 180° South  Level FlightAware Approximate
Sun 11:01:00 AM 36.1396 -80.2167 180° South  Level FlightAware Approximate
Sun 11:02:00 AM 36.1333 -80.2167 North  Level FlightAware Approximate
Sun 11:03:00 AM 36.1337 -80.2220 North  Level Estimated
Sun 11:04:00 AM 36.1333 -80.2167 North  Level FlightAware Approximate
Sun 11:05:00 AM 36.1337 -80.2220 North  Level Estimated
Sun 11:06:00 AM 36.1333 -80.2167 North  Level FlightAware Approximate
Sun 11:07:00 AM 36.1337 -80.2220 North  Level Estimated
Sun 11:08:00 AM 36.1333 -80.2167 North  Level FlightAware Approximate
Sun 11:09:00 AM 36.1337 -80.2220 North  Level Estimated

Login

Don't have an account? Register now (free) for customized features, flight alerts, and more!